createdAt,value
2016-11-17T00:00:05.196Z,1009.44
2016-11-17T00:05:05.175Z,1009.43
2016-11-17T00:10:04.603Z,1009.39
2016-11-17T00:15:04.394Z,1009.38
2016-11-17T00:20:05.166Z,1009.31
2016-11-17T00:25:04.545Z,1009.37
2016-11-17T00:30:04.463Z,1009.28
2016-11-17T00:35:05.083Z,1009.19
2016-11-17T00:40:05.205Z,1009.16
2016-11-17T00:45:04.749Z,1009.03
2016-11-17T00:50:05.109Z,1008.95
2016-11-17T00:55:05.048Z,1008.87
2016-11-17T01:00:04.788Z,1008.76
2016-11-17T01:05:04.309Z,1008.77
2016-11-17T01:10:04.989Z,1008.77
2016-11-17T01:15:04.230Z,1008.78
2016-11-17T01:20:04.396Z,1008.71
2016-11-17T01:25:04.610Z,1008.56
2016-11-17T01:30:05.177Z,1008.41
2016-11-17T01:35:04.647Z,1008.39
2016-11-17T01:40:04.462Z,1008.36
2016-11-17T01:45:04.636Z,1008.32
2016-11-17T01:50:04.822Z,1008.31
2016-11-17T01:55:04.587Z,1008.08
2016-11-17T02:00:04.345Z,1008.01
2016-11-17T02:05:04.426Z,1007.97
2016-11-17T02:10:04.916Z,1008.01
2016-11-17T02:15:04.447Z,1007.96
2016-11-17T02:20:04.394Z,1007.93
2016-11-17T02:25:04.235Z,1008.01
2016-11-17T02:30:04.654Z,1007.95
2016-11-17T02:35:04.817Z,1007.79
2016-11-17T02:40:05.086Z,1007.77
2016-11-17T02:45:04.130Z,1007.41
2016-11-17T02:50:04.902Z,1007.1
2016-11-17T02:55:05.066Z,1006.94
2016-11-17T03:00:05.341Z,1007
2016-11-17T03:05:04.915Z,1006.86
2016-11-17T03:10:04.541Z,1006.82
2016-11-17T03:15:04.779Z,1006.89
2016-11-17T03:20:04.758Z,1007.03
2016-11-17T03:25:04.822Z,1007.06
2016-11-17T03:30:05.225Z,1007.02
2016-11-17T03:35:04.382Z,1006.95
2016-11-17T03:40:04.833Z,1006.94
2016-11-17T03:45:04.370Z,1006.88
2016-11-17T03:50:04.755Z,1006.69
2016-11-17T03:55:04.719Z,1006.64
2016-11-17T04:00:05.386Z,1006.65
2016-11-17T04:05:04.963Z,1006.55
2016-11-17T04:10:04.894Z,1006.53
2016-11-17T04:15:05.167Z,1006.25
2016-11-17T04:20:04.346Z,1006.16
2016-11-17T04:25:04.906Z,1006.07
2016-11-17T04:30:04.229Z,1006.07
2016-11-17T04:35:04.929Z,1006.17
2016-11-17T04:40:04.590Z,1006.18
2016-11-17T04:45:04.907Z,1006.07
2016-11-17T04:50:05.100Z,1006.02
2016-11-17T04:55:04.292Z,1006.05
2016-11-17T05:00:04.731Z,1005.96
2016-11-17T05:05:05.047Z,1005.92
2016-11-17T05:10:05.048Z,1005.96
2016-11-17T05:15:04.030Z,1005.99
2016-11-17T05:20:04.825Z,1006.1
2016-11-17T05:25:04.992Z,1006.15
2016-11-17T05:30:04.743Z,1006.1
2016-11-17T05:35:05.257Z,1006.11
2016-11-17T05:40:04.443Z,1006.09
2016-11-17T05:45:04.670Z,1005.99
2016-11-17T05:50:04.010Z,1005.96
2016-11-17T06:00:06.085Z,1005.79
2016-11-17T06:05:04.638Z,1005.77
2016-11-17T06:10:04.018Z,1005.81
2016-11-17T06:15:05.047Z,1005.89
2016-11-17T06:20:04.215Z,1005.95
2016-11-17T06:25:04.928Z,1006
2016-11-17T06:30:04.774Z,1005.97
2016-11-17T06:35:05.684Z,1005.91
2016-11-17T06:40:04.919Z,1005.97
2016-11-17T06:45:05.167Z,1006.02
2016-11-17T06:50:05.058Z,1005.94
2016-11-17T06:55:04.860Z,1005.94
2016-11-17T07:00:04.984Z,1005.96
2016-11-17T07:05:04.417Z,1005.94
2016-11-17T07:10:04.965Z,1005.97
2016-11-17T07:15:05.003Z,1005.86
2016-11-17T07:20:04.860Z,1005.82
2016-11-17T07:25:04.985Z,1005.77
2016-11-17T07:30:04.911Z,1005.65
2016-11-17T07:35:05.339Z,1005.62
2016-11-17T07:40:04.984Z,1005.75
2016-11-17T07:45:04.181Z,1005.81
2016-11-17T07:50:04.729Z,1005.89
2016-11-17T07:55:04.265Z,1005.68
2016-11-17T08:00:04.792Z,1005.64
2016-11-17T08:05:05.037Z,1005.76
2016-11-17T08:10:04.425Z,1005.78
2016-11-17T08:15:04.328Z,1005.73
2016-11-17T08:20:04.921Z,1005.67
2016-11-17T08:25:05.157Z,1005.7
2016-11-17T08:30:05.097Z,1005.71
2016-11-17T08:35:04.812Z,1005.55
2016-11-17T08:40:04.352Z,1005.65
2016-11-17T08:45:04.813Z,1005.62
2016-11-17T08:50:04.490Z,1005.61
2016-11-17T08:55:04.973Z,1005.42
2016-11-17T09:00:04.343Z,1005.42
2016-11-17T09:05:04.947Z,1005.46
2016-11-17T09:10:04.851Z,1005.53
2016-11-17T09:15:04.963Z,1005.55
2016-11-17T09:20:04.688Z,1005.38
2016-11-17T09:25:04.114Z,1005.4
2016-11-17T09:30:04.523Z,1005.39
2016-11-17T09:35:04.237Z,1005.31
2016-11-17T09:40:05.015Z,1005.26
2016-11-17T09:45:04.600Z,1005.17
2016-11-17T09:50:04.408Z,1005.16
2016-11-17T09:55:05.001Z,1005.11
2016-11-17T10:00:04.951Z,1005.2
2016-11-17T10:05:05.084Z,1005.1
2016-11-17T10:10:04.694Z,1005.05
2016-11-17T10:15:04.812Z,1004.95
2016-11-17T10:20:05.191Z,1004.58
2016-11-17T10:25:04.542Z,1004.55
2016-11-17T10:30:04.940Z,1004.6
2016-11-17T10:35:04.306Z,1004.59
2016-11-17T10:40:04.762Z,1004.52
2016-11-17T10:45:04.864Z,1004.53
2016-11-17T10:50:04.215Z,1004.36
2016-11-17T10:55:04.696Z,1004.17
2016-11-17T11:00:04.813Z,1004.28
2016-11-17T11:05:04.346Z,1003.9
2016-11-17T11:10:04.559Z,1003.95
2016-11-17T11:15:04.863Z,1003.87
2016-11-17T11:20:04.724Z,1003.86
2016-11-17T11:25:04.243Z,1003.79
2016-11-17T11:30:04.777Z,1003.71
2016-11-17T11:35:04.458Z,1003.74
2016-11-17T11:40:04.270Z,1003.64
2016-11-17T11:45:04.598Z,1003.6
2016-11-17T11:50:04.892Z,1003.64
2016-11-17T11:55:04.596Z,1003.49
2016-11-17T12:00:04.540Z,1003.43
2016-11-17T12:05:04.251Z,1003.45
2016-11-17T12:10:04.286Z,1003.27
2016-11-17T12:15:05.248Z,1003.42
2016-11-17T12:20:04.755Z,1003.29
2016-11-17T12:25:04.456Z,1003.31
2016-11-17T12:30:04.940Z,1003.12
2016-11-17T12:35:04.841Z,1003.11
2016-11-17T12:40:04.690Z,1003
2016-11-17T12:45:04.251Z,1003.07
2016-11-17T12:50:04.750Z,1003.02
2016-11-17T12:55:04.561Z,1003.13
2016-11-17T13:00:05.107Z,1002.77
2016-11-17T13:05:04.732Z,1002.85
2016-11-17T13:10:04.296Z,1002.84
2016-11-17T13:15:05.066Z,1002.75
2016-11-17T13:20:04.698Z,1002.71
2016-11-17T13:25:04.830Z,1002.71
2016-11-17T13:30:04.159Z,1002.59
2016-11-17T13:35:04.486Z,1002.58
2016-11-17T13:40:05.160Z,1002.46
2016-11-17T13:45:04.771Z,1002.46
2016-11-17T13:50:05.178Z,1002.41
2016-11-17T13:55:04.602Z,1002.22
2016-11-17T14:00:04.230Z,1002.34
2016-11-17T14:05:04.914Z,1002.13
2016-11-17T14:10:04.428Z,1002.07
2016-11-17T14:15:04.469Z,1001.84
2016-11-17T14:20:04.820Z,1001.77
2016-11-17T14:25:05.105Z,1001.77
2016-11-17T14:30:04.415Z,1001.59
2016-11-17T14:35:05.083Z,1001.63
2016-11-17T14:40:04.981Z,1001.52
2016-11-17T14:45:04.322Z,1001.34
2016-11-17T14:50:04.153Z,1001.16
2016-11-17T14:55:04.802Z,1000.82
2016-11-17T15:00:04.950Z,1000.91
2016-11-17T15:05:04.681Z,1001.03
2016-11-17T15:10:05.018Z,1000.83
2016-11-17T15:15:04.841Z,1000.74
2016-11-17T15:20:04.309Z,1000.55
2016-11-17T15:25:04.553Z,1000.51
2016-11-17T15:30:04.825Z,1000.34
2016-11-17T15:35:04.310Z,1000.3
2016-11-17T15:40:04.970Z,1000.08
2016-11-17T15:45:04.388Z,999.93
2016-11-17T15:50:04.382Z,1000.17
2016-11-17T15:55:04.862Z,1000.14
2016-11-17T16:00:04.940Z,1000.09
2016-11-17T16:05:04.820Z,999.6
2016-11-17T16:10:04.503Z,999.46
2016-11-17T16:15:04.725Z,999.48
2016-11-17T16:20:04.940Z,999.57
2016-11-17T16:25:04.473Z,999.5
2016-11-17T16:30:04.475Z,999.46
2016-11-17T16:35:05.274Z,999.38
2016-11-17T16:40:04.677Z,999.44
2016-11-17T16:45:04.975Z,999.65
2016-11-17T16:50:04.985Z,999.11
2016-11-17T16:55:04.454Z,999.53
2016-11-17T17:00:04.953Z,999.16
2016-11-17T17:05:04.157Z,999.17
2016-11-17T17:10:04.658Z,999.08
2016-11-17T17:15:05.192Z,998.72
2016-11-17T17:20:04.611Z,998.81
2016-11-17T17:25:04.169Z,998.66
2016-11-17T17:30:04.476Z,998.77
2016-11-17T17:35:04.498Z,998.46
2016-11-17T17:40:04.751Z,998.46
2016-11-17T17:45:04.397Z,998.27
2016-11-17T17:50:04.595Z,998.21
2016-11-17T17:55:05.195Z,998.34
2016-11-17T18:00:04.270Z,998.2
2016-11-17T18:05:04.877Z,998.14
2016-11-17T18:10:05.071Z,998.02
2016-11-17T18:15:04.352Z,997.93
2016-11-17T18:20:04.894Z,998.05
2016-11-17T18:25:04.677Z,997.54
2016-11-17T18:30:04.941Z,998.27
2016-11-17T18:35:05.099Z,997.93
2016-11-17T18:40:04.576Z,998
2016-11-17T18:45:04.536Z,997.78
2016-11-17T18:50:05.079Z,997.84
2016-11-17T18:55:05.197Z,997.73
2016-11-17T19:00:04.492Z,997.98
2016-11-17T19:05:04.710Z,997.65
2016-11-17T19:10:04.352Z,997.94
2016-11-17T19:15:05.094Z,997.72
2016-11-17T19:20:04.608Z,997.44
2016-11-17T19:25:04.721Z,997.34
2016-11-17T19:30:05.114Z,997.5
2016-11-17T19:35:04.519Z,997.35
2016-11-17T19:40:04.598Z,997.25
2016-11-17T19:45:04.563Z,997.1
2016-11-17T19:50:04.701Z,997.13
2016-11-17T19:55:04.951Z,997.05
2016-11-17T20:00:05.086Z,997.06
2016-11-17T20:05:05.062Z,997.01
2016-11-17T20:10:04.422Z,996.98
2016-11-17T20:15:04.595Z,996.84
2016-11-17T20:20:04.858Z,996.79
2016-11-17T20:25:04.758Z,996.64
2016-11-17T20:30:04.403Z,996.68
2016-11-17T20:35:04.715Z,996.66
2016-11-17T20:40:04.439Z,996.54
2016-11-17T20:45:04.696Z,996.56
2016-11-17T20:50:04.917Z,996.4
2016-11-17T20:55:05.027Z,996.25
2016-11-17T21:00:05.139Z,996.26
2016-11-17T21:05:04.840Z,996.42
2016-11-17T21:10:05.159Z,996.14
2016-11-17T21:15:04.220Z,996.06
2016-11-17T21:20:04.649Z,996.1
2016-11-17T21:25:04.788Z,996.02
2016-11-17T21:30:04.890Z,996.02
2016-11-17T21:35:04.353Z,996.06
2016-11-17T21:40:04.201Z,995.43
2016-11-17T21:45:04.334Z,995.77
2016-11-17T21:50:04.185Z,995.56
2016-11-17T21:55:04.890Z,995.77
2016-11-17T22:00:04.280Z,995.52
2016-11-17T22:05:04.929Z,995.57
2016-11-17T22:10:04.520Z,995.51
2016-11-17T22:15:04.370Z,995.5
2016-11-17T22:20:04.996Z,995.36
2016-11-17T22:25:04.630Z,995.1
2016-11-17T22:30:05.074Z,995.22
2016-11-17T22:35:04.376Z,995.15
2016-11-17T22:40:04.841Z,995.18
2016-11-17T22:45:05.082Z,995.07
2016-11-17T22:50:04.226Z,995.34
2016-11-17T22:55:04.973Z,995.15
2016-11-17T23:00:04.370Z,995.01
2016-11-17T23:05:05.019Z,994.96
2016-11-17T23:10:04.545Z,995.11
2016-11-17T23:15:04.484Z,994.82
2016-11-17T23:20:04.883Z,995.59
2016-11-17T23:25:04.634Z,995.41
2016-11-17T23:30:04.902Z,995.33
2016-11-17T23:35:04.432Z,995.38
2016-11-17T23:40:04.678Z,995.22
2016-11-17T23:45:04.375Z,995.17
2016-11-17T23:50:04.681Z,995.43
2016-11-17T23:55:04.355Z,995.34
